createdAt,value
2019-05-01T00:01:18.316Z,9.79
2019-05-01T00:04:06.657Z,9.84
2019-05-01T00:06:42.806Z,9.97
2019-05-01T00:09:12.873Z,10.05
2019-05-01T00:11:41.678Z,10.05
2019-05-01T00:14:10.418Z,9.95
2019-05-01T00:16:39.252Z,9.93
2019-05-01T00:19:07.671Z,9.84
2019-05-01T00:21:36.069Z,9.78
2019-05-01T00:24:04.631Z,9.75
2019-05-01T00:26:33.029Z,9.67
2019-05-01T00:29:01.520Z,9.66
2019-05-01T00:31:29.949Z,9.64
2019-05-01T00:33:58.363Z,9.52
2019-05-01T00:36:26.855Z,9.44
2019-05-01T00:38:55.630Z,9.45
2019-05-01T00:41:24.022Z,9.37
2019-05-01T00:43:52.437Z,9.27
2019-05-01T00:46:20.913Z,9.18
2019-05-01T00:48:49.367Z,9.21
2019-05-01T00:51:21.188Z,9.33
2019-05-01T00:53:49.922Z,9.34
2019-05-01T00:56:20.050Z,9.38
2019-05-01T00:58:53.070Z,9.34
2019-05-01T01:01:30.620Z,9.26
2019-05-01T01:03:59.255Z,9.25
2019-05-01T01:06:27.735Z,9.29
2019-05-01T01:08:56.157Z,9.38
2019-05-01T01:11:24.594Z,9.30
2019-05-01T01:13:53.072Z,9.15
2019-05-01T01:16:21.474Z,9.05
2019-05-01T01:18:49.893Z,9.00
2019-05-01T01:21:18.311Z,9.01
2019-05-01T01:23:46.823Z,9.07
2019-05-01T01:26:15.392Z,9.05
2019-05-01T01:28:43.873Z,9.04
2019-05-01T01:31:12.359Z,9.00
2019-05-01T01:33:40.786Z,8.91
2019-05-01T01:36:09.193Z,8.78
2019-05-01T01:38:37.630Z,8.79
2019-05-01T01:41:06.175Z,8.72
2019-05-01T01:43:52.991Z,8.85
2019-05-01T01:46:31.975Z,8.91
2019-05-01T01:49:00.461Z,8.82
2019-05-01T01:51:29.566Z,8.69
2019-05-01T01:53:59.404Z,8.68
2019-05-01T01:56:27.963Z,8.61
2019-05-01T01:58:56.815Z,8.57
2019-05-01T02:01:26.920Z,8.59
2019-05-01T02:04:06.286Z,8.76
2019-05-01T02:06:34.817Z,8.55
2019-05-01T02:09:05.024Z,8.28
2019-05-01T02:11:33.571Z,8.24
2019-05-01T02:14:02.054Z,8.37
2019-05-01T02:16:30.534Z,8.30
2019-05-01T02:18:58.948Z,8.21
2019-05-01T02:21:27.389Z,8.12
2019-05-01T02:23:55.802Z,8.01
2019-05-01T02:26:26.306Z,8.07
2019-05-01T02:28:59.220Z,8.21
2019-05-01T02:31:32.743Z,8.08
2019-05-01T02:34:03.573Z,7.99
2019-05-01T02:36:34.287Z,7.94
2019-05-01T02:39:04.893Z,7.96
2019-05-01T02:41:36.652Z,7.99
2019-05-01T02:44:08.101Z,7.92
2019-05-01T02:46:37.470Z,7.79
2019-05-01T02:49:17.588Z,7.67
2019-05-01T02:51:46.776Z,7.69
2019-05-01T02:54:17.965Z,7.76
2019-05-01T02:56:52.202Z,7.76
2019-05-01T02:59:22.873Z,6.01
2019-05-01T03:01:51.417Z,7.95
2019-05-01T03:04:20.307Z,8.03
2019-05-01T03:06:49.877Z,8.11
2019-05-01T03:09:19.066Z,8.12
2019-05-01T03:11:50.646Z,8.05
2019-05-01T03:14:21.795Z,8.18
2019-05-01T03:16:52.917Z,8.30
2019-05-01T03:19:31.659Z,8.20
2019-05-01T03:22:20.768Z,7.93
2019-05-01T03:24:49.321Z,7.83
2019-05-01T03:27:17.988Z,7.95
2019-05-01T03:29:46.825Z,7.99
2019-05-01T03:32:19.090Z,8.04
2019-05-01T03:34:51.831Z,8.14
2019-05-01T03:37:16.272Z,8.18
2019-05-01T03:39:44.854Z,8.06
2019-05-01T03:42:13.520Z,8.11
2019-05-01T03:44:42.220Z,8.01
2019-05-01T03:47:10.761Z,8.04
2019-05-01T03:49:39.452Z,8.17
2019-05-01T03:52:08.223Z,8.21
2019-05-01T03:54:38.250Z,8.28
2019-05-01T03:57:06.663Z,8.37
2019-05-01T03:59:35.478Z,8.38
2019-05-01T04:02:33.084Z,8.54
2019-05-01T04:04:54.336Z,8.53
2019-05-01T04:07:22.981Z,8.58
2019-05-01T04:09:51.563Z,8.64
2019-05-01T04:12:20.169Z,8.64
2019-05-01T04:14:49.472Z,8.61
2019-05-01T04:17:22.954Z,8.62
2019-05-01T04:19:51.723Z,8.66
2019-05-01T04:22:20.280Z,8.66
2019-05-01T04:24:49.519Z,8.64
2019-05-01T04:27:19.862Z,8.70
2019-05-01T04:29:53.471Z,8.73
2019-05-01T04:32:23.589Z,8.64
2019-05-01T04:35:00.001Z,8.68
2019-05-01T04:37:29.086Z,8.74
2019-05-01T04:39:58.037Z,8.79
2019-05-01T04:42:26.688Z,8.81
2019-05-01T04:44:55.267Z,8.82
2019-05-01T04:47:24.660Z,8.65
2019-05-01T04:49:53.661Z,8.67
2019-05-01T04:52:22.177Z,8.71
2019-05-01T04:54:50.850Z,8.74
2019-05-01T04:57:19.493Z,8.71
2019-05-01T04:59:47.982Z,8.77
2019-05-01T05:02:18.602Z,8.82
2019-05-01T05:04:47.387Z,8.86
2019-05-01T05:07:16.030Z,8.89
2019-05-01T05:09:46.390Z,8.78
2019-05-01T05:12:20.467Z,8.61
2019-05-01T05:14:50.614Z,8.53
2019-05-01T05:17:20.862Z,8.42
2019-05-01T05:19:49.798Z,8.50
2019-05-01T05:22:18.521Z,8.44
2019-05-01T05:24:47.307Z,8.38
2019-05-01T05:27:20.708Z,8.45
2019-05-01T05:29:49.986Z,8.49
2019-05-01T05:32:20.911Z,8.47
2019-05-01T05:34:51.296Z,8.53
2019-05-01T05:44:14.324Z,8.33
2019-05-01T05:46:42.905Z,8.42
2019-05-01T05:49:11.641Z,8.44
2019-05-01T05:51:44.009Z,8.29
2019-05-01T05:54:32.434Z,8.27
2019-05-01T05:57:18.728Z,8.38
2019-05-01T05:59:57.100Z,8.44
2019-05-01T06:02:35.858Z,8.39
2019-05-01T06:05:15.971Z,8.52
2019-05-01T06:08:05.279Z,8.51
2019-05-01T06:10:40.254Z,8.45
2019-05-01T06:13:18.022Z,8.41
2019-05-01T06:15:49.233Z,8.42
2019-05-01T06:18:19.668Z,8.47
2019-05-01T06:20:56.967Z,8.41
2019-05-01T06:23:38.692Z,8.49
2019-05-01T06:26:14.348Z,8.51
2019-05-01T06:28:42.884Z,8.43
2019-05-01T06:31:17.788Z,8.50
2019-05-01T06:33:48.555Z,8.34
2019-05-01T06:36:16.611Z,8.31
2019-05-01T06:38:45.501Z,8.18
2019-05-01T06:41:16.222Z,8.20
2019-05-01T06:43:49.229Z,8.27
2019-05-01T06:46:31.911Z,8.32
2019-05-01T06:49:24.389Z,8.33
2019-05-01T06:51:53.196Z,8.32
2019-05-01T06:54:23.841Z,8.35
2019-05-01T06:56:52.683Z,8.34
2019-05-01T06:59:26.334Z,8.29
2019-05-01T07:01:58.252Z,8.41
2019-05-01T07:04:23.527Z,8.48
2019-05-01T07:06:52.632Z,8.42
2019-05-01T07:09:28.251Z,8.46
2019-05-01T07:11:54.508Z,8.46
2019-05-01T07:14:22.890Z,8.62
2019-05-01T07:16:51.494Z,8.72
2019-05-01T07:19:21.924Z,8.77
2019-05-01T07:21:50.569Z,8.95
2019-05-01T07:24:19.356Z,9.00
2019-05-01T07:26:49.154Z,8.96
2019-05-01T07:29:19.532Z,8.98
2019-05-01T07:31:48.144Z,8.88
2019-05-01T07:34:17.079Z,8.85
2019-05-01T07:36:50.124Z,8.87
2019-05-01T07:39:16.263Z,8.91
2019-05-01T07:41:44.808Z,8.98
2019-05-01T07:44:17.674Z,8.89
2019-05-01T07:47:04.645Z,8.74
2019-05-01T07:49:47.778Z,8.49
2019-05-01T07:52:17.175Z,8.50
2019-05-01T07:54:47.256Z,8.46
2019-05-01T07:57:16.781Z,8.27
2019-05-01T07:59:45.575Z,8.37
2019-05-01T08:02:14.422Z,8.48
2019-05-01T08:04:42.822Z,8.53
2019-05-01T08:07:11.257Z,8.41
2019-05-01T08:09:39.802Z,8.64
2019-05-01T08:12:08.372Z,8.65
2019-05-01T08:14:36.780Z,8.82
2019-05-01T08:17:05.293Z,8.96
2019-05-01T08:19:44.451Z,9.08
2019-05-01T08:22:14.542Z,9.11
2019-05-01T08:24:43.014Z,9.17
2019-05-01T08:27:15.644Z,9.03
2019-05-01T08:29:44.969Z,8.68
2019-05-01T08:32:33.764Z,8.55
2019-05-01T08:35:05.773Z,8.60
2019-05-01T08:37:34.183Z,8.64
2019-05-01T08:40:02.603Z,8.70
2019-05-01T08:42:31.041Z,8.77
2019-05-01T08:45:05.115Z,8.85
2019-05-01T08:47:33.081Z,9.02
2019-05-01T08:50:14.707Z,8.92
2019-05-01T08:52:47.482Z,8.82
2019-05-01T08:55:13.394Z,8.88
2019-05-01T08:57:41.855Z,8.94
2019-05-01T09:00:10.995Z,8.94
2019-05-01T09:02:41.608Z,8.80
2019-05-01T09:05:27.721Z,8.77
2019-05-01T09:07:40.377Z,8.86
2019-05-01T09:10:09.353Z,8.78
2019-05-01T09:12:37.809Z,8.72
2019-05-01T09:15:12.652Z,8.78
2019-05-01T09:17:37.919Z,8.79
2019-05-01T09:20:06.484Z,8.74
2019-05-01T09:22:34.920Z,8.75
2019-05-01T09:25:03.684Z,8.88
2019-05-01T09:27:49.952Z,8.96
2019-05-01T09:30:30.003Z,8.96
2019-05-01T09:32:58.508Z,9.08
2019-05-01T09:35:26.989Z,8.99
2019-05-01T09:37:55.502Z,9.14
2019-05-01T09:40:23.913Z,9.00
2019-05-01T09:42:54.812Z,9.03
2019-05-01T09:45:22.647Z,9.13
2019-05-01T09:47:51.057Z,9.14
2019-05-01T09:50:19.560Z,8.06
2019-05-01T09:53:06.094Z,9.07
2019-05-01T09:55:42.535Z,9.19
2019-05-01T09:58:10.933Z,9.24
2019-05-01T10:00:39.413Z,9.44
2019-05-01T10:03:07.853Z,9.40
2019-05-01T10:05:38.121Z,9.34
2019-05-01T10:08:06.453Z,9.45
2019-05-01T10:10:37.046Z,9.63
2019-05-01T10:13:05.326Z,9.61
2019-05-01T10:15:33.807Z,9.56
2019-05-01T10:18:02.357Z,9.56
2019-05-01T10:20:30.831Z,9.58
2019-05-01T10:23:00.771Z,9.51
2019-05-01T10:25:29.253Z,9.45
2019-05-01T10:27:59.305Z,9.46
2019-05-01T10:30:31.711Z,9.59
2019-05-01T10:33:06.957Z,9.60
2019-05-01T10:35:42.752Z,9.65
2019-05-01T10:38:09.510Z,9.73
2019-05-01T10:40:37.576Z,9.78
2019-05-01T10:43:06.233Z,9.64
2019-05-01T10:45:34.775Z,9.64
2019-05-01T10:48:03.281Z,9.73
2019-05-01T10:50:31.787Z,9.64
2019-05-01T10:53:00.201Z,9.74
2019-05-01T10:55:28.686Z,9.81
2019-05-01T10:57:57.140Z,9.85
2019-05-01T11:00:25.686Z,9.88
2019-05-01T11:02:54.120Z,10.03
2019-05-01T11:05:22.753Z,10.21
2019-05-01T11:07:51.468Z,10.37
2019-05-01T11:10:20.857Z,10.51
2019-05-01T11:12:49.340Z,10.44
2019-05-01T11:15:19.436Z,10.26
2019-05-01T11:17:47.856Z,10.30
2019-05-01T11:20:16.373Z,10.39
2019-05-01T11:22:44.859Z,10.58
2019-05-01T11:25:14.983Z,10.65
2019-05-01T11:27:43.433Z,10.53
2019-05-01T11:30:12.159Z,10.37
2019-05-01T11:32:57.719Z,10.46
2019-05-01T11:35:33.502Z,10.41
2019-05-01T11:38:03.613Z,10.34
2019-05-01T11:40:33.703Z,10.46
2019-05-01T11:43:02.794Z,10.68
2019-05-01T11:45:31.496Z,10.76
2019-05-01T11:47:59.877Z,10.82
2019-05-01T11:50:28.308Z,10.83
2019-05-01T11:52:56.719Z,10.85
2019-05-01T11:55:25.174Z,10.91
2019-05-01T11:57:53.695Z,10.78
2019-05-01T12:00:22.474Z,10.90
2019-05-01T12:02:50.976Z,10.89
2019-05-01T12:05:19.392Z,10.94
2019-05-01T12:07:47.940Z,10.96
2019-05-01T12:10:16.532Z,11.14
2019-05-01T12:12:44.976Z,11.35
2019-05-01T12:15:15.123Z,11.11
2019-05-01T12:17:48.089Z,11.12
2019-05-01T12:20:17.055Z,11.28
2019-05-01T12:22:47.955Z,11.36
2019-05-01T12:25:15.845Z,11.42
2019-05-01T12:27:44.291Z,11.53
2019-05-01T12:30:14.124Z,11.33
2019-05-01T12:32:42.579Z,11.25
2019-05-01T12:35:11.194Z,11.24
2019-05-01T12:37:42.285Z,11.18
2019-05-01T12:40:13.229Z,11.14
2019-05-01T12:42:41.769Z,11.27
2019-05-01T12:45:11.446Z,11.17
2019-05-01T12:47:48.289Z,11.13
2019-05-01T12:50:17.445Z,11.13
2019-05-01T12:52:47.562Z,11.13
2019-05-01T12:55:18.105Z,11.25
2019-05-01T12:57:46.536Z,11.33
2019-05-01T13:00:16.860Z,11.27
2019-05-01T13:02:45.294Z,11.24
2019-05-01T13:05:13.939Z,11.31
2019-05-01T13:07:42.452Z,11.26
2019-05-01T13:10:11.827Z,11.28
2019-05-01T13:12:40.444Z,11.27
2019-05-01T13:15:09.186Z,11.45
2019-05-01T13:17:37.672Z,11.47
2019-05-01T13:20:07.337Z,11.50
2019-05-01T13:22:35.758Z,11.65
2019-05-01T13:25:06.261Z,11.46
2019-05-01T13:27:36.327Z,11.58
2019-05-01T13:30:18.730Z,11.72
2019-05-01T13:32:48.793Z,11.98
2019-05-01T13:35:17.340Z,11.97
2019-05-01T13:37:45.863Z,11.77
2019-05-01T13:40:16.075Z,11.81
2019-05-01T13:42:44.638Z,11.83
2019-05-01T13:45:14.810Z,11.90
2019-05-01T13:47:43.275Z,11.93
2019-05-01T13:50:12.256Z,11.84
2019-05-01T13:52:40.803Z,11.84
2019-05-01T13:55:09.887Z,11.86
2019-05-01T13:57:38.307Z,11.99
2019-05-01T14:00:07.875Z,12.14
2019-05-01T14:02:36.356Z,12.10
2019-05-01T14:05:05.959Z,12.17
2019-05-01T14:07:34.463Z,12.20
2019-05-01T14:10:02.900Z,12.40
2019-05-01T14:12:31.324Z,13.01
2019-05-01T14:14:59.743Z,13.50
2019-05-01T14:17:28.192Z,13.77
2019-05-01T14:20:00.809Z,14.00
2019-05-01T14:22:33.937Z,14.22
2019-05-01T14:25:04.103Z,14.15
2019-05-01T14:27:32.552Z,14.09
2019-05-01T14:30:00.983Z,14.36
2019-05-01T14:32:29.419Z,14.42
2019-05-01T14:34:57.851Z,14.62
2019-05-01T14:37:29.915Z,14.86
2019-05-01T14:39:56.475Z,15.08
2019-05-01T14:42:24.880Z,14.83
2019-05-01T14:44:53.381Z,14.59
2019-05-01T14:47:21.812Z,14.57
2019-05-01T14:49:50.292Z,14.61
2019-05-01T14:52:18.726Z,14.34
2019-05-01T14:54:47.214Z,14.27
2019-05-01T14:57:15.622Z,14.30
2019-05-01T14:59:44.070Z,14.25
2019-05-01T15:02:12.676Z,14.14
2019-05-01T15:04:41.075Z,14.22
2019-05-01T15:07:11.224Z,14.32
2019-05-01T15:09:39.764Z,14.42
2019-05-01T15:12:09.615Z,14.38
2019-05-01T15:14:39.678Z,14.44
2019-05-01T15:17:09.767Z,14.35
2019-05-01T15:19:39.843Z,14.40
2019-05-01T15:22:08.253Z,14.30
2019-05-01T15:24:37.074Z,14.50
2019-05-01T15:27:05.545Z,14.44
2019-05-01T15:29:33.972Z,14.56
2019-05-01T15:32:02.407Z,14.69
2019-05-01T15:34:30.822Z,14.77
2019-05-01T15:36:59.245Z,14.77
2019-05-01T15:39:29.348Z,14.75
2019-05-01T15:41:59.460Z,14.67
2019-05-01T15:44:32.914Z,14.77
2019-05-01T15:47:01.338Z,14.99
2019-05-01T15:49:29.769Z,14.93
2019-05-01T15:51:58.187Z,14.96
2019-05-01T15:54:26.619Z,14.91
2019-05-01T15:56:55.137Z,14.81
2019-05-01T15:59:23.610Z,14.95
2019-05-01T16:01:52.084Z,14.97
2019-05-01T16:04:20.503Z,14.90
2019-05-01T16:06:48.968Z,14.98
2019-05-01T16:09:17.464Z,14.99
2019-05-01T16:12:03.705Z,15.09
2019-05-01T16:14:32.257Z,15.01
2019-05-01T16:17:00.734Z,14.96
2019-05-01T16:19:29.186Z,15.22
2019-05-01T16:21:57.638Z,15.09
2019-05-01T16:24:26.064Z,14.88
2019-05-01T16:26:54.491Z,14.81
2019-05-01T16:29:22.979Z,14.88
2019-05-01T16:31:51.480Z,14.88
2019-05-01T16:34:19.914Z,14.96
2019-05-01T16:36:48.401Z,15.01
2019-05-01T16:39:24.639Z,14.88
2019-05-01T16:41:53.183Z,14.95
2019-05-01T16:44:21.626Z,15.28
2019-05-01T16:46:50.058Z,15.29
2019-05-01T16:49:18.542Z,15.37
2019-05-01T16:51:47.227Z,15.29
2019-05-01T16:54:15.627Z,15.22
2019-05-01T16:56:44.108Z,15.19
2019-05-01T16:59:12.547Z,15.11
2019-05-01T17:01:48.598Z,15.21
2019-05-01T17:04:18.747Z,15.10
2019-05-01T17:07:05.040Z,14.89
2019-05-01T17:09:52.838Z,14.86
2019-05-01T17:12:22.967Z,15.01
2019-05-01T17:14:51.374Z,15.20
2019-05-01T17:17:24.682Z,15.04
2019-05-01T17:19:53.133Z,14.89
2019-05-01T17:22:21.628Z,14.98
2019-05-01T17:24:50.140Z,14.89
2019-05-01T17:27:18.572Z,14.87
2019-05-01T17:29:46.982Z,14.77
2019-05-01T17:32:16.975Z,14.73
2019-05-01T17:34:45.489Z,14.57
2019-05-01T17:37:13.921Z,14.46
2019-05-01T17:39:42.605Z,14.46
2019-05-01T17:42:11.046Z,14.41
2019-05-01T17:44:39.675Z,14.51
2019-05-01T17:47:08.184Z,14.48
2019-05-01T17:49:41.054Z,14.43
2019-05-01T17:52:06.903Z,14.42
2019-05-01T17:54:35.363Z,14.26
2019-05-01T17:57:03.870Z,14.13
2019-05-01T17:59:32.299Z,14.08
2019-05-01T18:02:10.066Z,14.12
2019-05-01T18:04:55.744Z,14.10
2019-05-01T18:07:28.742Z,14.04
2019-05-01T18:09:55.704Z,14.05
2019-05-01T18:12:28.578Z,14.12
2019-05-01T18:14:55.438Z,14.10
2019-05-01T18:17:24.113Z,14.05
2019-05-01T18:19:52.578Z,14.02
2019-05-01T18:22:38.989Z,14.02
2019-05-01T18:25:23.587Z,14.00
2019-05-01T18:27:59.228Z,13.91
2019-05-01T18:30:29.390Z,13.82
2019-05-01T18:32:57.815Z,13.69
2019-05-01T18:35:26.236Z,13.67
2019-05-01T18:38:06.341Z,13.62
2019-05-01T18:40:34.078Z,13.54
2019-05-01T18:43:02.727Z,13.42
2019-05-01T18:45:34.320Z,13.37
2019-05-01T18:48:02.767Z,13.34
2019-05-01T18:50:31.189Z,13.28
2019-05-01T18:52:59.614Z,13.12
2019-05-01T18:55:30.383Z,13.02
2019-05-01T18:57:58.290Z,13.02
2019-05-01T19:00:26.801Z,12.97
2019-05-01T19:02:55.207Z,12.80
2019-05-01T19:05:23.741Z,12.68
2019-05-01T19:07:52.399Z,12.57
2019-05-01T19:10:20.962Z,12.48
2019-05-01T19:12:49.457Z,12.41
2019-05-01T19:15:18.024Z,12.30
2019-05-01T19:17:46.622Z,12.26
2019-05-01T19:20:15.442Z,12.22
2019-05-01T19:22:43.938Z,12.16
2019-05-01T19:25:16.047Z,12.09
2019-05-01T19:27:42.895Z,12.01
2019-05-01T19:30:14.958Z,11.99
2019-05-01T19:32:42.350Z,12.00
2019-05-01T19:35:11.034Z,11.89
2019-05-01T19:37:39.571Z,11.82
2019-05-01T19:40:09.038Z,11.79
2019-05-01T19:42:40.029Z,11.77
2019-05-01T19:45:07.961Z,11.67
2019-05-01T19:47:36.408Z,11.65
2019-05-01T19:50:09.499Z,11.56
2019-05-01T19:52:39.869Z,11.53
2019-05-01T19:55:08.648Z,11.50
2019-05-01T19:57:37.241Z,11.49
2019-05-01T20:00:08.245Z,11.26
2019-05-01T20:02:38.391Z,11.15
2019-05-01T20:05:11.054Z,11.09
2019-05-01T20:07:38.838Z,11.01
2019-05-01T20:10:08.047Z,10.96
2019-05-01T20:12:36.493Z,10.90
2019-05-01T20:15:06.761Z,10.97
2019-05-01T20:17:35.663Z,10.88
2019-05-01T20:20:06.437Z,10.81
2019-05-01T20:22:34.930Z,10.78
2019-05-01T20:25:03.491Z,10.70
2019-05-01T20:27:31.921Z,10.77
2019-05-01T20:30:00.343Z,10.66
2019-05-01T20:32:28.869Z,10.59
2019-05-01T20:34:59.343Z,10.58
2019-05-01T20:37:27.449Z,10.63
2019-05-01T20:39:55.951Z,10.64
2019-05-01T20:42:24.399Z,10.57
2019-05-01T20:45:03.965Z,10.51
2019-05-01T20:47:34.448Z,10.36
2019-05-01T20:49:53.385Z,10.28
2019-05-01T20:52:21.868Z,10.26
2019-05-01T20:54:50.341Z,10.02
2019-05-01T20:57:26.442Z,9.99
2019-05-01T20:59:54.892Z,10.03
2019-05-01T21:02:23.438Z,9.84
2019-05-01T21:04:53.551Z,9.40
2019-05-01T21:07:23.615Z,9.43
2019-05-01T21:09:57.883Z,9.57
2019-05-01T21:12:23.971Z,9.80
2019-05-01T21:14:52.377Z,9.99
2019-05-01T21:17:20.799Z,10.09
2019-05-01T21:19:49.242Z,9.90
2019-05-01T21:22:17.735Z,9.78
2019-05-01T21:24:46.164Z,9.75
2019-05-01T21:27:14.560Z,9.77
2019-05-01T21:29:44.538Z,9.74
2019-05-01T21:32:13.604Z,9.72
2019-05-01T21:34:43.547Z,9.59
2019-05-01T21:37:12.132Z,9.48
2019-05-01T21:39:40.550Z,9.43
2019-05-01T21:42:11.627Z,9.38
2019-05-01T21:44:39.163Z,9.32
2019-05-01T21:47:07.573Z,9.31
2019-05-01T21:49:36.010Z,9.24
2019-05-01T21:52:07.298Z,9.23
2019-05-01T21:54:35.066Z,9.19
2019-05-01T21:57:03.630Z,9.13
2019-05-01T21:59:32.097Z,9.12
2019-05-01T22:02:00.645Z,9.07
2019-05-01T22:04:31.928Z,8.98
2019-05-01T22:06:59.320Z,8.90
2019-05-01T22:09:27.888Z,8.89
2019-05-01T22:11:56.480Z,8.93
2019-05-01T22:14:31.195Z,8.88
2019-05-01T22:17:00.478Z,8.93
2019-05-01T22:19:29.661Z,8.89
2019-05-01T22:22:05.634Z,8.87
2019-05-01T22:24:47.494Z,8.73
2019-05-01T22:27:23.570Z,8.70
2019-05-01T22:29:53.664Z,8.70
2019-05-01T22:32:23.732Z,8.77
2019-05-01T22:34:53.903Z,8.77
2019-05-01T22:37:22.465Z,8.75
2019-05-01T22:39:55.691Z,8.64
2019-05-01T22:42:24.106Z,8.61
2019-05-01T22:44:52.611Z,8.55
2019-05-01T22:47:21.049Z,8.58
2019-05-01T22:49:49.581Z,8.50
2019-05-01T22:52:18.029Z,8.45
2019-05-01T22:54:48.884Z,8.37
2019-05-01T22:57:18.346Z,8.28
2019-05-01T22:59:47.159Z,8.35
2019-05-01T23:02:17.420Z,8.33
2019-05-01T23:04:48.335Z,8.29
2019-05-01T23:07:16.845Z,8.28
2019-05-01T23:09:46.388Z,8.21
2019-05-01T23:12:14.892Z,8.11
2019-05-01T23:14:44.538Z,7.97
2019-05-01T23:17:14.860Z,7.97
2019-05-01T23:19:43.355Z,7.97
2019-05-01T23:22:11.798Z,8.02
2019-05-01T23:24:40.258Z,8.04
2019-05-01T23:27:08.847Z,8.00
2019-05-01T23:29:37.441Z,7.95
2019-05-01T23:32:06.483Z,7.93
2019-05-01T23:34:35.621Z,7.79
2019-05-01T23:37:04.247Z,7.82
2019-05-01T23:39:39.743Z,7.78
2019-05-01T23:42:02.926Z,7.65
2019-05-01T23:44:31.342Z,7.67
2019-05-01T23:46:59.864Z,7.68
2019-05-01T23:49:28.322Z,7.76
2019-05-01T23:51:58.533Z,7.82
2019-05-01T23:54:27.013Z,7.85
2019-05-01T23:56:55.432Z,7.74
2019-05-01T23:59:23.860Z,7.69
